Time;durP1;ratioP1;P1;durP2;ratioP2;P2;SDS_P1;SDS_P2;PMS_P1;PMS_P2;Temp;Humidity;BMP_temperature;BMP_pressure;BME280_temperature;BME280_humidity;BME280_pressure;Samples;Min_cycle;Max_cycle;Signal;HPM_P1;HPM_P2
2022/09/13 00:00:28;;;;;;;26.17;21.53;;;18.20;99.90;;;;;;4995500;28;20499;-68
2022/09/13 00:02:53;;;;;;;29.03;23.70;;;18.20;99.90;;;;;;4995178;28;20172;-68
2022/09/13 00:05:19;;;;;;;28.47;24.20;;;18.20;99.90;;;;;;4995445;28;20077;-68
2022/09/13 00:07:45;;;;;;;34.20;28.20;;;18.20;99.90;;;;;;4995861;28;20055;-68
2022/09/13 00:10:11;;;;;;;31.53;25.33;;;18.20;99.90;;;;;;4994925;28;20065;-68
2022/09/13 00:12:36;;;;;;;30.10;25.67;;;18.20;99.90;;;;;;4995214;28;20046;-68
2022/09/13 00:15:03;;;;;;;32.00;27.57;;;18.20;99.90;;;;;;4996010;28;20127;-68
2022/09/13 00:17:28;;;;;;;30.57;25.43;;;18.30;99.90;;;;;;4995124;28;20074;-68
2022/09/13 00:19:54;;;;;;;32.13;26.63;;;18.30;99.90;;;;;;4993466;28;20050;-68
2022/09/13 00:22:20;;;;;;;25.13;22.37;;;18.20;99.90;;;;;;4995072;28;20046;-68
2022/09/13 00:24:45;;;;;;;26.57;22.67;;;18.20;99.90;;;;;;4994769;28;20081;-68
2022/09/13 00:27:11;;;;;;;26.80;22.03;;;18.20;99.90;;;;;;4994703;28;20134;-68
2022/09/13 00:29:37;;;;;;;26.90;21.90;;;18.20;99.90;;;;;;4995283;28;20053;-68
2022/09/13 00:32:03;;;;;;;26.97;21.07;;;18.20;99.90;;;;;;4995159;28;20133;-68
2022/09/13 00:34:29;;;;;;;24.27;20.13;;;18.30;99.90;;;;;;4993879;28;20042;-68
2022/09/13 00:36:55;;;;;;;25.40;18.97;;;18.30;99.90;;;;;;4994824;28;20046;-68
2022/09/13 00:39:21;;;;;;;20.97;18.67;;;18.20;99.90;;;;;;4994716;28;20054;-68
2022/09/13 00:41:47;;;;;;;24.73;19.23;;;18.20;99.90;;;;;;4993681;28;20475;-68
2022/09/13 00:44:51;;;;;;;23.40;19.17;;;18.30;99.90;;;;;;4993684;28;20119;-68
2022/09/13 00:47:27;;;;;;;19.07;16.83;;;18.30;99.90;;;;;;4990758;28;20105;-68
2022/09/13 00:50:09;;;;;;;20.33;16.50;;;18.20;99.90;;;;;;4994573;28;20043;-68
2022/09/13 00:52:36;;;;;;;19.17;16.50;;;18.20;99.90;;;;;;4993600;28;20064;-68
2022/09/13 00:55:24;;;;;;;16.97;15.17;;;18.20;99.90;;;;;;4994443;28;20046;-67
2022/09/13 00:57:51;;;;;;;19.50;15.83;;;18.20;99.90;;;;;;4994731;28;20375;-68
2022/09/13 01:00:18;;;;;;;20.30;16.90;;;18.20;99.90;;;;;;4993490;28;20459;-68
2022/09/13 01:02:52;;;;;;;17.77;15.00;;;18.20;99.90;;;;;;4994403;28;20133;-68
2022/09/13 01:05:22;;;;;;;20.70;15.40;;;18.20;99.90;;;;;;4993239;28;20092;-68
2022/09/13 01:07:48;;;;;;;18.17;14.47;;;18.20;99.90;;;;;;4994285;28;20409;-68
2022/09/13 01:10:14;;;;;;;18.83;14.90;;;18.20;99.90;;;;;;4993009;28;20096;-68
2022/09/13 01:12:45;;;;;;;16.43;13.80;;;18.20;99.90;;;;;;4995042;28;20052;-68
2022/09/13 01:15:11;;;;;;;15.27;13.67;;;18.20;99.90;;;;;;4994243;28;20089;-68
2022/09/13 01:17:38;;;;;;;15.47;12.97;;;18.20;99.90;;;;;;4994182;28;20046;-68
2022/09/13 01:20:07;;;;;;;19.63;13.57;;;18.20;99.90;;;;;;4994160;28;20116;-68
2022/09/13 01:23:11;;;;;;;14.07;12.60;;;18.20;99.90;;;;;;4994143;28;20042;-68
2022/09/13 01:25:55;;;;;;;17.57;12.47;;;18.20;99.90;;;;;;4994838;28;20120;-68
2022/09/13 01:28:38;;;;;;;15.80;13.30;;;18.20;99.90;;;;;;4994006;28;20544;-67
2022/09/13 01:31:13;;;;;;;13.80;11.70;;;18.20;99.90;;;;;;4994584;28;20046;-67
2022/09/13 01:34:11;;;;;;;15.98;13.73;;;18.20;99.90;;;;;;4994027;28;20133;-67
2022/09/13 01:36:42;;;;;;;15.43;12.80;;;18.20;99.90;;;;;;4998272;28;20042;-68
2022/09/13 01:39:29;;;;;;;15.03;11.67;;;18.20;99.90;;;;;;5000524;28;20104;-67
2022/09/13 01:42:10;;;;;;;15.33;13.83;;;18.10;99.90;;;;;;4999899;28;20109;-67
2022/09/13 01:45:03;;;;;;;17.43;13.23;;;18.10;99.90;;;;;;5000443;28;20096;-68
2022/09/13 01:47:55;;;;;;;15.80;13.17;;;18.10;99.90;;;;;;5001051;28;20042;-67
2022/09/13 01:50:29;;;;;;;13.90;11.53;;;18.10;99.90;;;;;;5000589;28;20534;-67
2022/09/13 01:53:23;;;;;;;15.83;11.67;;;18.10;99.90;;;;;;4999425;28;20140;-67
2022/09/13 01:56:02;;;;;;;17.17;12.80;;;18.10;99.90;;;;;;5000072;28;20773;-67
2022/09/13 01:58:34;;;;;;;17.63;13.23;;;18.10;99.90;;;;;;5001156;28;20038;-67
2022/09/13 02:01:06;;;;;;;14.97;12.23;;;18.10;99.90;;;;;;4999731;28;20057;-67
2022/09/13 02:03:45;;;;;;;14.50;12.43;;;18.10;99.90;;;;;;5000316;28;20082;-67
2022/09/13 02:06:16;;;;;;;15.80;13.53;;;18.10;99.90;;;;;;5000830;28;20106;-67
2022/09/13 02:08:49;;;;;;;13.90;11.63;;;18.10;99.90;;;;;;4999952;28;20525;-67
2022/09/13 02:11:21;;;;;;;18.27;12.87;;;18.00;99.90;;;;;;5000967;28;20162;-67
2022/09/13 02:14:13;;;;;;;14.93;12.47;;;18.10;99.90;;;;;;5000267;28;20278;-67
2022/09/13 02:16:46;;;;;;;14.93;12.10;;;18.00;99.90;;;;;;5000122;28;20057;-67
2022/09/13 02:19:24;;;;;;;14.60;13.10;;;18.00;99.90;;;;;;5000121;28;20046;-67
2022/09/13 02:21:57;;;;;;;17.40;12.77;;;18.10;99.90;;;;;;5000619;28;20050;-67
2022/09/13 02:24:28;;;;;;;16.77;13.77;;;18.10;99.90;;;;;;5000722;28;20073;-67
2022/09/13 02:26:58;;;;;;;20.23;16.20;;;18.10;99.90;;;;;;4999998;28;20058;-67
2022/09/13 02:29:27;;;;;;;15.80;13.93;;;18.10;99.90;;;;;;4999680;28;20051;-67
2022/09/13 02:32:21;;;;;;;15.80;13.73;;;18.00;99.90;;;;;;4999947;28;20141;-67
2022/09/13 02:35:00;;;;;;;16.47;13.53;;;18.00;99.90;;;;;;5000501;28;20133;-67
2022/09/13 02:37:28;;;;;;;19.00;13.40;;;18.00;99.90;;;;;;5000777;28;20054;-67
2022/09/13 02:40:08;;;;;;;20.43;14.90;;;18.00;99.90;;;;;;4999887;28;20046;-67
2022/09/13 02:42:37;;;;;;;17.60;14.33;;;18.10;99.90;;;;;;5000464;28;20124;-67
2022/09/13 02:45:05;;;;;;;19.63;15.67;;;18.10;99.90;;;;;;4999884;28;20049;-67
2022/09/13 02:47:43;;;;;;;16.60;13.20;;;18.10;99.90;;;;;;4996653;28;20086;-67
2022/09/13 02:50:11;;;;;;;23.40;15.23;;;18.10;99.90;;;;;;4997222;28;20058;-67
2022/09/13 02:53:00;;;;;;;23.77;14.30;;;18.10;99.90;;;;;;4996679;28;20046;-67
2022/09/13 02:55:51;;;;;;;20.17;16.63;;;18.10;99.90;;;;;;4996758;28;20042;-67
2022/09/13 02:58:42;;;;;;;19.93;14.70;;;18.10;99.90;;;;;;4996749;28;20093;-67
2022/09/13 03:01:08;;;;;;;17.13;14.33;;;18.20;99.90;;;;;;4997144;28;20124;-68
2022/09/13 03:03:33;;;;;;;17.87;14.60;;;18.20;99.90;;;;;;4996523;28;20085;-67
2022/09/13 03:05:59;;;;;;;13.97;11.37;;;18.20;99.90;;;;;;4996664;28;20107;-67
2022/09/13 03:08:25;;;;;;;12.83;9.27;;;18.20;99.90;;;;;;4996434;28;20386;-67
2022/09/13 03:11:14;;;;;;;9.17;5.40;;;18.10;99.90;;;;;;4996353;28;20042;-68
2022/09/13 03:13:49;;;;;;;5.97;3.77;;;18.10;99.90;;;;;;4996314;28;20129;-67
2022/09/13 03:16:36;;;;;;;5.18;2.65;;;18.10;99.90;;;;;;4996957;28;20065;-67
2022/09/13 03:19:37;;;;;;;4.37;2.30;;;18.10;99.90;;;;;;4996362;28;20503;-67
2022/09/13 03:22:29;;;;;;;5.70;1.87;;;18.10;99.90;;;;;;4979932;28;20058;-67
2022/09/13 03:25:32;;;;;;;4.27;1.83;;;18.10;99.90;;;;;;4996300;28;20062;-68
2022/09/13 03:28:19;;;;;;;6.63;1.90;;;18.00;99.90;;;;;;4996106;28;20097;-67
2022/09/13 03:30:51;;;;;;;3.43;2.13;;;18.00;99.90;;;;;;4996555;28;20129;-68
2022/09/13 03:33:29;;;;;;;5.60;1.60;;;18.00;99.90;;;;;;4994606;28;20593;-67
2022/09/13 03:36:19;;;;;;;5.10;2.00;;;18.00;99.90;;;;;;4995885;28;20494;-68
2022/09/13 03:39:02;;;;;;;5.07;2.10;;;18.00;99.90;;;;;;4995056;28;20058;-68
2022/09/13 03:41:34;;;;;;;9.20;2.37;;;18.00;99.90;;;;;;4994774;28;20085;-67
2022/09/13 03:44:05;;;;;;;7.93;2.40;;;18.10;99.90;;;;;;4996342;28;20057;-67
2022/09/13 03:46:41;;;;;;;5.87;2.20;;;18.10;99.90;;;;;;4995026;28;20137;-67
2022/09/13 03:49:11;;;;;;;5.60;2.17;;;18.00;99.90;;;;;;4996136;28;20045;-67
2022/09/13 03:51:38;;;;;;;7.90;2.00;;;18.00;99.90;;;;;;4995935;28;20434;-67
2022/09/13 03:54:08;;;;;;;5.87;2.00;;;18.00;99.90;;;;;;4995579;28;20482;-67
2022/09/13 03:56:34;;;;;;;6.20;1.97;;;18.00;99.90;;;;;;4995624;28;20061;-67
2022/09/13 03:58:59;;;;;;;4.10;1.80;;;18.00;99.90;;;;;;4995430;28;20056;-67
2022/09/13 04:01:26;;;;;;;4.83;1.70;;;18.00;99.90;;;;;;4995531;28;20042;-67
2022/09/13 04:03:51;;;;;;;4.90;1.83;;;18.00;99.90;;;;;;4995422;28;20085;-67
2022/09/13 04:06:17;;;;;;;4.73;2.13;;;18.00;99.90;;;;;;4995383;28;20050;-67
2022/09/13 04:08:43;;;;;;;6.80;2.10;;;18.00;99.90;;;;;;4994168;28;20054;-67
2022/09/13 04:11:10;;;;;;;5.57;1.70;;;18.00;99.90;;;;;;4995218;28;20034;-67
2022/09/13 04:13:36;;;;;;;4.97;1.83;;;18.00;99.90;;;;;;4994016;28;20047;-67
2022/09/13 04:16:06;;;;;;;2.90;1.60;;;18.00;99.90;;;;;;4994191;28;20129;-67
2022/09/13 04:18:32;;;;;;;6.27;1.90;;;18.00;99.90;;;;;;4995171;28;20046;-67
2022/09/13 04:21:00;;;;;;;5.70;1.50;;;18.00;99.90;;;;;;4995090;28;20050;-67
2022/09/13 04:23:27;;;;;;;3.47;1.30;;;18.00;99.90;;;;;;4995010;28;20423;-67
2022/09/13 04:25:53;;;;;;;5.43;1.57;;;18.00;99.90;;;;;;4993382;28;20085;-67
2022/09/13 04:28:20;;;;;;;6.33;1.50;;;18.00;99.90;;;;;;4995293;28;20467;-67
2022/09/13 04:30:48;;;;;;;7.73;1.60;;;18.00;99.90;;;;;;4994844;28;20042;-67
2022/09/13 04:33:16;;;;;;;5.33;1.60;;;17.90;99.90;;;;;;4994898;28;20050;-67
2022/09/13 04:35:42;;;;;;;5.87;1.43;;;17.90;99.90;;;;;;4994476;28;20446;-67
2022/09/13 04:38:08;;;;;;;5.43;1.20;;;17.90;99.90;;;;;;4994873;28;20058;-67
2022/09/13 04:40:35;;;;;;;5.77;1.50;;;17.90;99.90;;;;;;4994767;28;20045;-67
2022/09/13 04:43:01;;;;;;;5.53;1.80;;;18.00;99.90;;;;;;4994698;28;20050;-67
2022/09/13 04:45:27;;;;;;;6.37;1.50;;;18.00;99.90;;;;;;4994694;28;20076;-67
2022/09/13 04:47:55;;;;;;;7.13;1.77;;;18.00;99.90;;;;;;4993908;28;20050;-67
2022/09/13 04:50:21;;;;;;;5.30;1.70;;;17.90;99.90;;;;;;4994479;28;20105;-67
2022/09/13 04:52:47;;;;;;;8.53;1.70;;;18.00;99.90;;;;;;4995004;28;20084;-67
2022/09/13 04:55:13;;;;;;;5.37;1.40;;;17.90;99.90;;;;;;4994397;28;20077;-67
2022/09/13 04:57:40;;;;;;;6.27;1.70;;;17.90;99.90;;;;;;4994398;28;20057;-67
2022/09/13 05:00:07;;;;;;;7.27;1.50;;;17.90;99.90;;;;;;4994785;28;20123;-67
2022/09/13 05:02:33;;;;;;;7.93;1.90;;;17.90;99.90;;;;;;4994310;28;20103;-67
2022/09/13 05:04:59;;;;;;;5.70;1.50;;;17.90;99.90;;;;;;4994303;28;20042;-67
2022/09/13 05:07:24;;;;;;;7.80;1.70;;;17.90;99.90;;;;;;4993143;28;20405;-67
2022/09/13 05:09:50;;;;;;;5.83;1.70;;;17.90;99.90;;;;;;4994178;28;20035;-67
2022/09/13 05:12:16;;;;;;;6.23;1.57;;;17.80;99.90;;;;;;4993624;28;20046;-67
2022/09/13 05:14:42;;;;;;;4.60;1.63;;;17.80;99.90;;;;;;4993502;28;20363;-67
2022/09/13 05:17:07;;;;;;;8.10;2.00;;;17.80;99.90;;;;;;4994192;28;20057;-67
2022/09/13 05:19:33;;;;;;;5.13;1.53;;;17.80;99.90;;;;;;4992867;28;20446;-67
2022/09/13 05:22:00;;;;;;;5.20;1.80;;;17.80;99.90;;;;;;4994096;28;20383;-67
2022/09/13 05:24:26;;;;;;;5.00;1.87;;;17.80;99.90;;;;;;4994023;28;20053;-67
2022/09/13 05:26:52;;;;;;;5.13;1.80;;;17.80;99.90;;;;;;4992927;28;20050;-67
2022/09/13 05:29:17;;;;;;;5.13;1.80;;;17.80;99.90;;;;;;4994075;28;20062;-67
2022/09/13 05:31:43;;;;;;;10.37;1.93;;;17.80;99.90;;;;;;4993887;28;20390;-67
2022/09/13 05:34:13;;;;;;;6.93;2.00;;;17.80;99.90;;;;;;4993954;28;20054;-67
2022/09/13 05:36:39;;;;;;;10.20;2.67;;;17.80;99.90;;;;;;4994456;28;20056;-67
2022/09/13 05:39:10;;;;;;;4.13;2.00;;;17.80;99.90;;;;;;4993872;28;20050;-67
2022/09/13 05:41:36;;;;;;;9.70;2.20;;;17.80;99.90;;;;;;4992717;28;20129;-67
2022/09/13 05:44:02;;;;;;;10.53;2.33;;;17.80;99.90;;;;;;4994169;28;20050;-67
2022/09/13 05:46:28;;;;;;;8.63;1.90;;;17.80;99.90;;;;;;4994463;28;20058;-68
2022/09/13 05:48:57;;;;;;;7.07;2.13;;;17.80;99.90;;;;;;4993968;28;20046;-67
2022/09/13 05:51:23;;;;;;;6.53;2.23;;;17.80;99.90;;;;;;4992677;28;20046;-67
2022/09/13 05:53:50;;;;;;;5.03;2.17;;;17.80;99.90;;;;;;4992848;28;20073;-67
2022/09/13 05:56:28;;;;;;;8.50;2.20;;;17.80;99.90;;;;;;4994041;28;20062;-67
2022/09/13 05:58:54;;;;;;;5.07;2.17;;;17.80;99.90;;;;;;4994654;28;20061;-67
2022/09/13 06:01:23;;;;;;;4.97;2.00;;;17.80;99.90;;;;;;4993768;28;20483;-67
2022/09/13 06:03:50;;;;;;;6.07;1.97;;;17.80;99.90;;;;;;4994222;28;20050;-67
2022/09/13 06:06:16;;;;;;;9.60;2.43;;;17.90;99.90;;;;;;4976572;28;20054;-67
2022/09/13 06:08:42;;;;;;;8.70;2.00;;;17.90;99.90;;;;;;4994504;28;20046;-67
2022/09/13 06:11:10;;;;;;;6.93;2.50;;;17.90;99.90;;;;;;4993628;28;20038;-67
2022/09/13 06:13:36;;;;;;;4.07;1.93;;;17.90;99.90;;;;;;4994434;28;20046;-67
2022/09/13 06:16:04;;;;;;;8.50;2.30;;;17.90;99.90;;;;;;4994198;28;20046;-67
2022/09/13 06:18:31;;;;;;;5.03;2.20;;;17.90;99.90;;;;;;4992966;28;20129;-67
2022/09/13 06:21:05;;;;;;;6.57;2.40;;;17.90;99.90;;;;;;4993663;28;20046;-67
2022/09/13 06:23:31;;;;;;;6.80;2.38;;;18.00;99.90;;;;;;4997267;28;20051;-67
2022/09/13 06:26:02;;;;;;;7.77;2.70;;;18.00;99.90;;;;;;4997500;28;20128;-67
2022/09/13 06:28:27;;;;;;;8.57;2.47;;;18.00;99.90;;;;;;4997268;28;20046;-67
2022/09/13 06:31:18;;;;;;;10.17;3.03;;;18.10;99.90;;;;;;4997191;28;20127;-67
2022/09/13 06:33:44;;;;;;;8.63;2.50;;;18.20;99.90;;;;;;4997220;28;20047;-67
2022/09/13 06:36:16;;;;;;;8.87;2.63;;;18.30;99.90;;;;;;4997056;28;20074;-67
2022/09/13 06:38:43;;;;;;;6.80;2.20;;;18.30;99.90;;;;;;4996416;28;20058;-67
2022/09/13 06:41:17;;;;;;;7.50;2.37;;;18.40;99.90;;;;;;4996973;28;20502;-67
2022/09/13 06:43:43;;;;;;;8.75;2.85;;;18.50;99.90;;;;;;4997146;28;20039;-67
2022/09/13 06:46:14;;;;;;;8.97;2.53;;;18.70;99.90;;;;;;4996988;28;20049;-67
2022/09/13 06:48:42;;;;;;;11.13;3.47;;;18.80;99.90;;;;;;4996945;28;20053;-68
2022/09/13 06:51:10;;;;;;;13.20;4.73;;;18.80;99.90;;;;;;4996779;28;20049;-69
2022/09/13 06:53:37;;;;;;;11.17;4.27;;;18.70;99.90;;;;;;4997578;28;20105;-66
2022/09/13 06:56:12;;;;;;;9.00;2.50;;;18.80;99.90;;;;;;4996812;28;20042;-66
2022/09/13 06:58:38;;;;;;;;;;;19.00;99.90;;;;;;4996285;28;20069;-67
2022/09/13 07:01:15;;;;;;;6.37;2.10;;;19.50;99.90;;;;;;4997221;28;19925;-67
2022/09/13 07:03:43;;;;;;;5.20;1.80;;;;;;;;;;4997256;28;20114;-67
2022/09/13 07:06:10;;;;;;;5.83;1.57;;;;;;;;;;4996857;28;20053;-67
2022/09/13 07:08:37;;;;;;;4.67;1.63;;;22.70;99.90;;;;;;4996533;28;20144;-67
2022/09/13 07:11:03;;;;;;;9.50;1.63;;;22.70;99.90;;;;;;4995313;28;20475;-67
2022/09/13 07:13:29;;;;;;;7.53;2.03;;;;;;;;;;4996738;28;20050;-67
2022/09/13 07:15:56;;;;;;;5.53;1.40;;;;;;;;;;4995234;28;20137;-67
2022/09/13 07:18:22;;;;;;;5.00;1.40;;;;;;;;;;4996391;28;20085;-68
2022/09/13 07:20:48;;;;;;;6.47;1.37;;;;;;;;;;4996336;28;20101;-68
2022/09/13 07:23:15;;;;;;;8.83;1.90;;;;;;;;;;4996560;28;20122;-68
2022/09/13 07:25:41;;;;;;;7.57;1.60;;;;;;;;;;4996062;28;20062;-67
2022/09/13 07:28:07;;;;;;;5.60;1.30;;;;;;;;;;4996233;28;20137;-67
2022/09/13 07:30:33;;;;;;;6.20;1.50;;;;;;;;;;4996035;28;20038;-68
2022/09/13 07:32:59;;;;;;;8.00;1.27;;;;;;;;;;4995739;28;20454;-68
2022/09/13 07:35:25;;;;;;;7.23;1.50;;;;;;;;;;4995307;28;20091;-68
2022/09/13 07:37:51;;;;;;;7.33;1.37;;;;;;;;;;4996567;28;20379;-68
2022/09/13 07:40:17;;;;;;;6.30;1.60;;;;;;;;;;4994938;28;20054;-68
2022/09/13 07:42:43;;;;;;;7.10;2.03;;;;;;;;;;4996130;28;20534;-67
2022/09/13 07:45:11;;;;;;;5.03;1.13;;;24.20;99.90;;;;;;4994309;28;20415;-69
2022/09/13 07:47:37;;;;;;;5.57;1.30;;;;;;;;;;4996375;28;20117;-67
2022/09/13 07:50:03;;;;;;;6.30;1.67;;;;;;;;;;4996146;28;20043;-67
2022/09/13 07:52:29;;;;;;;7.37;1.37;;;;;;;;;;4995701;28;20081;-67
2022/09/13 07:54:55;;;;;;;6.67;1.43;;;23.10;99.90;;;;;;4995569;28;20050;-67
2022/09/13 07:57:21;;;;;;;7.60;1.33;;;;;;;;;;4996324;28;20112;-67
2022/09/13 07:59:47;;;;;;;4.97;1.23;;;;;;;;;;4996292;28;20046;-67
2022/09/13 08:02:15;;;;;;;5.40;1.40;;;;;;;;;;4995635;28;20089;-68
2022/09/13 08:04:41;;;;;;;6.53;1.70;;;;;;;;;;4995374;28;20051;-67
2022/09/13 08:07:07;;;;;;;6.60;1.53;;;;;;;;;;4994198;28;20454;-67
2022/09/13 08:09:33;;;;;;;6.37;1.10;;;;;;;;;;4995753;28;20043;-67
2022/09/13 08:11:59;;;;;;;8.27;1.50;;;;;;;;;;4995334;28;20149;-67
2022/09/13 08:14:25;;;;;;;6.33;1.17;;;;;;;;;;4995224;28;20411;-67
2022/09/13 08:16:55;;;;;;;9.97;1.97;;;;;;;;;;4995194;28;20129;-67
2022/09/13 08:19:21;;;;;;;8.63;1.60;;;;;;;;;;4994727;28;20446;-68
2022/09/13 08:21:47;;;;;;;6.37;1.40;;;;;;;;;;4995640;28;20042;-68
2022/09/13 08:24:14;;;;;;;7.97;1.70;;;;;;;;;;4995413;28;20137;-68
2022/09/13 08:26:41;;;;;;;6.13;1.60;;;;;;;;;;4995150;28;20054;-68
2022/09/13 08:29:07;;;;;;;6.53;1.37;;;;;;;;;;4995273;28;20064;-68
2022/09/13 08:31:34;;;;;;;5.43;1.23;;;;;;;;;;4994917;28;20049;-66
2022/09/13 08:34:00;;;;;;;9.27;1.40;;;;;;;;;;4994945;28;20046;-66
2022/09/13 08:36:27;;;;;;;3.47;1.10;;;;;;;;;;4995139;28;20054;-67
2022/09/13 08:38:54;;;;;;;7.63;1.60;;;;;;;;;;4995095;28;20129;-67
2022/09/13 08:41:20;;;;;;;6.43;1.63;;;;;;;;;;4995019;28;20065;-67
2022/09/13 08:44:05;;;;;;;9.23;1.50;;;;;;;;;;4994744;28;20193;-67
2022/09/13 08:46:34;;;;;;;11.65;2.03;;;;;;;;;;4993559;28;20375;-67
2022/09/13 08:49:06;;;;;;;11.10;1.40;;;;;;;;;;4994927;28;20153;-67
2022/09/13 08:51:46;;;;;;;8.97;1.87;;;;;;;;;;4994774;28;20047;-67
2022/09/13 08:54:13;;;;;;;8.27;1.30;;;;;;;;;;4995109;28;20057;-67
2022/09/13 08:56:59;;;;;;;6.33;1.23;;;;;;;;;;4993819;28;20061;-67
2022/09/13 08:59:37;;;;;;;5.50;1.33;;;;;;;;;;4995436;28;20050;-68
2022/09/13 09:02:15;;;;;;;8.83;1.73;;;;;;;;;;4994849;28;20046;-68
2022/09/13 09:05:08;;;;;;;11.20;1.90;;;20.70;99.90;;;;;;4994385;28;20046;-68
2022/09/13 09:07:39;;;;;;;10.40;1.47;;;20.70;99.90;;;;;;4994735;28;20053;-68
2022/09/13 09:10:18;;;;;;;5.47;1.37;;;20.70;99.90;;;;;;4993613;28;20093;-68
2022/09/13 09:13:03;;;;;;;5.70;1.63;;;20.80;99.90;;;;;;4994385;28;20116;-68
2022/09/13 09:15:34;;;;;;;;;;;20.80;99.90;;;;;;4994690;28;20100;-68
2022/09/13 09:18:38;;;;;;;10.03;1.43;;;20.80;99.90;;;;;;4995085;28;20032;-68
2022/09/13 09:21:15;;;;;;;6.30;1.43;;;20.80;99.90;;;;;;4994816;28;20491;-68
2022/09/13 09:23:45;;;;;;;7.47;1.57;;;20.60;99.90;;;;;;4994766;28;20065;-68
2022/09/13 09:26:20;;;;;;;7.30;1.73;;;20.60;99.90;;;;;;4994015;28;20108;-68
2022/09/13 09:28:55;;;;;;;5.28;1.70;;;20.50;99.90;;;;;;4993909;28;20042;-68
2022/09/13 09:31:50;;;;;;;5.37;1.43;;;20.50;99.90;;;;;;4994336;28;20046;-68
2022/09/13 09:34:31;;;;;;;6.80;1.63;;;20.60;99.90;;;;;;4994126;28;20479;-68
2022/09/13 09:37:24;;;;;;;5.90;1.50;;;20.70;99.90;;;;;;4993670;28;20558;-68
2022/09/13 09:39:54;;;;;;;7.33;1.50;;;20.70;99.90;;;;;;4994048;28;20392;-68
2022/09/13 09:42:29;;;;;;;8.17;1.70;;;20.80;99.90;;;;;;4993261;28;20100;-68
2022/09/13 09:45:05;;;;;;;5.80;1.57;;;20.80;99.90;;;;;;4994520;28;20054;-68
2022/09/13 09:47:44;;;;;;;6.70;1.47;;;20.70;99.90;;;;;;4994209;28;20069;-68
2022/09/13 09:50:16;;;;;;;4.63;1.50;;;20.70;99.90;;;;;;4994417;28;20038;-68
2022/09/13 09:52:44;;;;;;;6.90;1.27;;;20.60;99.90;;;;;;4993724;28;20178;-68
2022/09/13 09:55:32;;;;;;;7.40;1.47;;;20.60;99.90;;;;;;4993912;28;20042;-68
2022/09/13 09:58:05;;;;;;;5.97;1.20;;;20.70;99.90;;;;;;4996158;28;20038;-68
2022/09/13 10:00:52;;;;;;;7.50;1.90;;;20.80;99.90;;;;;;4998223;28;20391;-68
2022/09/13 10:03:20;;;;;;;7.20;1.80;;;20.90;99.90;;;;;;4998367;28;20428;-68
2022/09/13 10:05:46;;;;;;;5.70;1.37;;;21.00;99.90;;;;;;4997621;28;20042;-68
2022/09/13 10:08:31;;;;;;;9.40;1.57;;;21.00;99.90;;;;;;4997669;28;20042;-68
2022/09/13 10:10:59;;;;;;;6.00;1.93;;;20.90;99.90;;;;;;4997595;28;20046;-68
2022/09/13 10:13:26;;;;;;;9.90;1.67;;;20.80;99.90;;;;;;4997541;28;20057;-69
2022/09/13 10:15:59;;;;;;;12.60;2.20;;;20.80;99.90;;;;;;4998081;28;20064;-69
2022/09/13 10:18:30;;;;;;;6.07;1.40;;;20.80;99.90;;;;;;4997088;28;20152;-68
2022/09/13 10:21:19;;;;;;;8.40;1.33;;;20.70;99.90;;;;;;4997065;28;20038;-69
2022/09/13 10:23:47;;;;;;;7.17;1.40;;;20.60;99.90;;;;;;4995739;28;20189;-67
2022/09/13 10:26:22;;;;;;;6.50;1.50;;;20.60;99.90;;;;;;4997083;28;20061;-68
2022/09/13 10:29:13;;;;;;;5.40;1.20;;;20.50;99.90;;;;;;4996908;28;20050;-67
2022/09/13 10:31:43;;;;;;;6.73;1.50;;;20.50;99.90;;;;;;4995636;28;20050;-68
2022/09/13 10:34:34;;;;;;;9.70;2.10;;;20.40;99.90;;;;;;4995587;28;20049;-68
2022/09/13 10:37:21;;;;;;;7.87;1.57;;;20.50;99.90;;;;;;4997221;28;20054;-68
2022/09/13 10:39:57;;;;;;;4.53;1.30;;;20.50;99.90;;;;;;4996861;28;20050;-68
2022/09/13 10:42:25;;;;;;;6.93;1.50;;;20.50;99.90;;;;;;4997166;28;20117;-68
2022/09/13 10:45:01;;;;;;;6.87;1.13;;;20.50;99.90;;;;;;4996513;28;20510;-68
2022/09/13 10:47:32;;;;;;;8.67;2.03;;;20.40;99.90;;;;;;4996706;28;20054;-68
2022/09/13 10:50:30;;;;;;;5.13;1.27;;;20.40;99.90;;;;;;4997023;28;20058;-68
2022/09/13 10:52:59;;;;;;;7.33;1.50;;;20.40;99.90;;;;;;4995731;28;20092;-67
2022/09/13 10:55:39;;;;;;;6.17;1.73;;;20.50;99.90;;;;;;4996330;28;20077;-67
2022/09/13 10:58:05;;;;;;;6.13;1.33;;;20.60;99.90;;;;;;4996189;28;20064;-68
2022/09/13 11:00:37;;;;;;;5.17;1.40;;;20.60;99.90;;;;;;4996812;28;20046;-68
2022/09/13 11:03:02;;;;;;;6.23;1.27;;;20.70;99.90;;;;;;4996022;28;20435;-68
2022/09/13 11:05:49;;;;;;;8.67;1.90;;;20.80;99.90;;;;;;4996391;28;20132;-68
2022/09/13 11:08:28;;;;;;;7.70;1.63;;;20.90;99.90;;;;;;4965197;28;20495;-68
2022/09/13 11:11:26;;;;;;;8.77;1.40;;;20.90;99.90;;;;;;4996362;28;20046;-68
2022/09/13 11:14:30;;;;;;;10.23;1.90;;;20.90;99.90;;;;;;4996989;28;20062;-68
2022/09/13 11:17:13;;;;;;;7.60;1.73;;;20.80;99.90;;;;;;4996259;28;20471;-68
2022/09/13 11:20:09;;;;;;;5.93;1.43;;;20.80;99.90;;;;;;4996295;28;20043;-68
2022/09/13 11:23:09;;;;;;;11.68;1.85;;;20.70;99.90;;;;;;4996285;28;20050;-68
2022/09/13 11:25:43;;;;;;;7.70;1.37;;;20.70;99.90;;;;;;4985250;28;20066;-68
2022/09/13 11:28:27;;;;;;;4.72;1.30;;;20.70;99.90;;;;;;4996154;28;20046;-68
2022/09/13 11:31:11;;;;;;;7.20;1.30;;;20.70;99.90;;;;;;4996074;28;20057;-68
2022/09/13 11:34:07;;;;;;;7.40;2.00;;;20.60;99.90;;;;;;4996214;28;20065;-69
2022/09/13 11:36:50;;;;;;;6.97;1.60;;;20.70;99.80;;;;;;4995942;28;20136;-68
2022/09/13 11:39:37;;;;;;;7.83;2.03;;;20.60;99.90;;;;;;4995999;28;20379;-68
2022/09/13 11:42:03;;;;;;;5.90;1.43;;;20.70;99.90;;;;;;4996703;28;20349;-68
2022/09/13 11:44:53;;;;;;;6.03;1.40;;;20.60;99.90;;;;;;4995910;28;20050;-67
2022/09/13 11:47:38;;;;;;;9.47;1.67;;;20.50;99.20;;;;;;4996480;28;20050;-68
2022/09/13 11:50:32;;;;;;;6.68;1.20;;;20.50;98.30;;;;;;4995665;28;20483;-67
2022/09/13 11:53:19;;;;;;;6.47;1.70;;;20.60;98.70;;;;;;4996233;28;20121;-67
2022/09/13 11:55:53;;;;;;;6.40;1.80;;;20.60;99.00;;;;;;4995182;28;20054;-67
2022/09/13 11:59:09;;;;;;;10.17;1.93;;;20.60;99.90;;;;;;4996305;28;20054;-68
2022/09/13 12:01:46;;;;;;;12.57;1.95;;;20.70;99.90;;;;;;4988850;28;20093;-68
2022/09/13 12:04:23;;;;;;;7.47;1.87;;;20.70;99.90;;;;;;4994173;28;20117;-68
2022/09/13 12:07:14;;;;;;;9.93;2.00;;;20.70;99.90;;;;;;4995642;28;20050;-68
2022/09/13 12:09:52;;;;;;;8.67;1.70;;;20.60;99.90;;;;;;4995078;28;20523;-68
2022/09/13 12:12:20;;;;;;;10.13;1.90;;;20.60;99.90;;;;;;4994355;28;20046;-68
2022/09/13 12:15:13;;;;;;;11.47;2.23;;;20.60;99.90;;;;;;4994965;28;20082;-68
2022/09/13 12:18:04;;;;;;;10.80;2.20;;;20.60;99.90;;;;;;4995022;28;20049;-68
2022/09/13 12:20:35;;;;;;;8.57;1.87;;;20.60;99.90;;;;;;4995190;28;20053;-68
2022/09/13 12:23:07;;;;;;;7.37;1.77;;;20.60;99.90;;;;;;4995293;28;20117;-68
2022/09/13 12:25:49;;;;;;;12.37;1.83;;;20.60;99.90;;;;;;4995448;28;20529;-68
2022/09/13 12:28:26;;;;;;;9.07;1.90;;;20.60;99.90;;;;;;4995309;28;20077;-68
2022/09/13 12:30:59;;;;;;;7.30;1.73;;;20.70;99.90;;;;;;4994941;28;20093;-68
2022/09/13 12:33:25;;;;;;;10.27;2.27;;;20.70;99.70;;;;;;4995020;28;20062;-68
2022/09/13 12:36:08;;;;;;;6.77;1.63;;;20.60;99.80;;;;;;4995143;28;20046;-68
2022/09/13 12:38:53;;;;;;;7.20;1.70;;;20.70;99.60;;;;;;4994916;28;20053;-67
2022/09/13 12:41:40;;;;;;;7.32;1.77;;;20.70;99.90;;;;;;4995379;28;20055;-68
2022/09/13 12:44:16;;;;;;;10.03;1.90;;;20.80;99.60;;;;;;4994756;28;20046;-68
2022/09/13 12:47:20;;;;;;;9.03;2.37;;;20.80;99.80;;;;;;4994655;28;20050;-68
2022/09/13 12:49:55;;;;;;;10.23;2.10;;;20.80;99.40;;;;;;4981214;28;20054;-68
2022/09/13 12:53:01;;;;;;;6.67;1.77;;;20.80;98.90;;;;;;4994971;28;20053;-68
2022/09/13 12:55:51;;;;;;;8.30;1.92;;;20.90;99.50;;;;;;4993591;28;20402;-68
2022/09/13 12:58:38;;;;;;;7.27;1.77;;;20.90;98.60;;;;;;4994496;28;20137;-67
2022/09/13 13:01:18;;;;;;;6.97;1.30;;;21.00;98.20;;;;;;4995279;28;20050;-67
2022/09/13 13:04:02;;;;;;;9.10;1.90;;;21.00;97.80;;;;;;4994704;28;20050;-68
2022/09/13 13:06:52;;;;;;;6.47;2.23;;;21.00;96.70;;;;;;4994641;28;20505;-67
2022/09/13 13:09:43;;;;;;;5.83;1.60;;;21.00;96.50;;;;;;4994432;28;20046;-67
2022/09/13 13:12:11;;;;;;;10.67;3.40;;;21.00;97.30;;;;;;4995047;28;20140;-68
2022/09/13 13:14:40;;;;;;;10.43;2.43;;;21.00;97.50;;;;;;4994209;28;20046;-67
2022/09/13 13:17:44;;;;;;;9.33;2.00;;;20.90;97.10;;;;;;4994170;28;20086;-67
2022/09/13 13:20:42;;;;;;;10.83;2.23;;;21.00;98.50;;;;;;4994142;28;20042;-67
2022/09/13 13:23:37;;;;;;;7.53;1.70;;;20.90;98.60;;;;;;4994206;28;20043;-67
2022/09/13 13:26:08;;;;;;;8.60;2.27;;;20.90;98.80;;;;;;4993612;28;20050;-68
2022/09/13 13:28:43;;;;;;;7.47;1.83;;;20.90;98.70;;;;;;4994102;28;20050;-67
2022/09/13 13:31:09;;;;;;;8.13;2.13;;;21.00;98.90;;;;;;4994279;28;20178;-67